Terminal Aerodrome Forecast
Issued by NWS

Home | Current Version | Previous Version | Text Only | Print | Product List | Glossary On
Versions: 1 2 3 4 5 6 7 8 9 10 11 12 13 14 15 16 17 18 19 20 21 22 23 24 25 26 27 28 29 30
798
FTUS43 KDLH 192339
TAFHIB
TAF
KHIB 192339Z 2000/2024 13010KT P6SM SCT080 BKN110 WS020/18035KT
     FM200200 13010KT P6SM BKN200 WS020/17040KT
     FM201200 13009KT P6SM SCT010 BKN150 WS020/18050KT
      TEMPO 2012/2016 6SM -DZ BKN010 OVC150
     FM201600 14010KT 6SM -RA BR BKN007 OVC015 WS020/17050KT
     FM201800 15008KT 4SM -RA BR VCTS OVC006CB WS020/19040KT=

USA.gov is the U.S. government's official web portal to all federal, state and local government web resources and services.